Time;durP1;ratioP1;P1;durP2;ratioP2;P2;SDS_P1;SDS_P2;PMS_P1;PMS_P2;Temp;Humidity;BMP_temperature;BMP_pressure;BME280_temperature;BME280_humidity;BME280_pressure;Samples;Min_cycle;Max_cycle;Signal;HPM_P1;HPM_P2
2022/05/14 00:01:13;;;;;;;4.55;3.17;;;;;;;18.87;56.69;99882.97;7710500;32;38189;-74
2022/05/14 00:05:30;;;;;;;5.47;3.20;;;;;;;18.83;57.05;99887.50;7724607;32;36328;-74
2022/05/14 00:09:46;;;;;;;7.75;3.55;;;;;;;18.82;57.06;99894.16;7733483;32;39512;-74
2022/05/14 00:14:03;;;;;;;7.75;3.78;;;;;;;18.97;56.79;99887.34;7716255;32;39986;-74
2022/05/14 00:18:21;;;;;;;8.13;4.28;;;;;;;19.02;56.70;99879.69;7734789;32;37631;-74
2022/05/14 00:22:37;;;;;;;4.70;3.28;;;;;;;18.99;56.46;99899.69;7712001;32;37032;-75
2022/05/14 00:26:53;;;;;;;8.15;4.35;;;;;;;19.16;56.10;99892.53;7726504;32;39304;-74
2022/05/14 00:31:09;;;;;;;8.05;4.20;;;;;;;18.90;56.90;99879.53;7725531;32;39594;-74
2022/05/14 00:35:25;;;;;;;5.37;3.72;;;;;;;18.81;57.33;99875.94;7724098;32;37915;-76
2022/05/14 00:39:42;;;;;;;7.37;4.10;;;;;;;18.81;57.18;99882.28;7726362;32;37751;-74
2022/05/14 00:43:59;;;;;;;6.20;3.78;;;;;;;18.75;57.57;99873.34;7724016;32;40031;-73
2022/05/14 00:48:16;;;;;;;6.43;3.75;;;;;;;18.76;57.90;99883.25;7711050;32;39975;-74
2022/05/14 00:52:32;;;;;;;8.00;4.45;;;;;;;18.43;58.94;99882.09;7708760;32;38868;-74
2022/05/14 00:56:52;;;;;;;7.03;4.18;;;;;;;18.31;60.04;99885.47;7733210;32;37244;-73
2022/05/14 01:01:09;;;;;;;10.30;3.95;;;;;;;18.48;59.04;99884.69;7738158;32;40013;-73
2022/05/14 01:05:25;;;;;;;9.10;4.37;;;;;;;18.27;59.66;99888.06;7725980;32;40720;-73
2022/05/14 01:09:44;;;;;;;8.02;3.92;;;;;;;18.17;60.13;99891.09;7712641;32;37891;-74
2022/05/14 01:14:00;;;;;;;9.45;4.35;;;;;;;18.19;59.98;99894.34;7723656;32;37127;-74
2022/05/14 01:18:20;;;;;;;12.20;4.40;;;;;;;18.28;59.70;99892.44;7714165;32;39072;-74
2022/05/14 01:22:50;;;;;;;9.35;4.57;;;;;;;17.90;61.57;99898.50;7730883;32;40047;-73
2022/05/14 01:27:07;;;;;;;5.93;4.20;;;;;;;18.14;60.62;99889.00;7719433;32;37613;-74
2022/05/14 01:31:23;;;;;;;7.00;4.20;;;;;;;17.97;61.59;99892.50;7712501;32;37097;-73
2022/05/14 01:35:40;;;;;;;6.30;4.32;;;;;;;17.98;61.20;99900.47;7727073;32;40097;-75
2022/05/14 01:39:56;;;;;;;7.87;4.43;;;;;;;18.03;60.49;99888.47;7737856;32;41194;-74
2022/05/14 01:44:13;;;;;;;9.02;4.47;;;;;;;18.05;60.60;99886.19;7727929;32;38659;-74
2022/05/14 01:48:29;;;;;;;8.27;4.82;;;;;;;18.09;60.26;99886.37;7738880;32;37633;-75
2022/05/14 01:52:45;;;;;;;8.88;4.43;;;;;;;17.91;61.24;99899.31;7737870;32;39148;-73
2022/05/14 01:57:01;;;;;;;6.18;4.22;;;;;;;17.95;60.50;99901.09;7734633;32;39718;-75
2022/05/14 02:01:26;;;;;;;10.30;4.78;;;;;;;17.98;60.15;99894.94;7710474;32;37637;-74
2022/05/14 02:05:42;;;;;;;10.13;4.70;;;;;;;18.00;60.01;99891.88;7710606;32;37944;-74
2022/05/14 02:09:58;;;;;;;6.93;4.62;;;;;;;17.93;60.28;99897.84;7711886;32;40014;-74
2022/05/14 02:14:14;;;;;;;10.90;5.43;;;;;;;17.65;61.16;99903.53;7710806;32;39970;-73
2022/05/14 02:18:30;;;;;;;10.00;5.25;;;;;;;17.56;61.54;99915.66;7711583;32;37790;-74
2022/05/14 02:22:46;;;;;;;13.25;5.32;;;;;;;17.57;61.66;99923.56;7711410;32;37197;-75
2022/05/14 02:27:04;;;;;;;8.02;4.85;;;;;;;17.52;61.60;99915.44;7711108;32;40290;-74
2022/05/14 02:31:21;;;;;;;9.55;5.53;;;;;;;17.39;62.02;99919.91;7715637;32;39917;-74
2022/05/14 02:35:38;;;;;;;11.70;5.90;;;;;;;17.46;61.61;99922.22;7725023;32;38756;-73
2022/05/14 02:39:55;;;;;;;9.52;5.25;;;;;;;17.14;62.37;99926.84;7736183;32;37024;-74
2022/05/14 02:48:36;;;;;;;8.18;5.10;;;;;;;17.27;60.80;99926.00;7708668;27;20449;-72
2022/05/14 02:52:52;;;;;;;10.15;5.32;;;;;;;17.70;59.30;99915.56;7684694;32;37933;-71
2022/05/14 02:57:09;;;;;;;9.05;5.22;;;;;;;17.31;60.69;99926.16;7664784;32;37362;-73
2022/05/14 03:01:25;;;;;;;14.18;5.85;;;;;;;17.05;61.85;99934.25;7658502;32;39331;-72
2022/05/14 03:05:41;;;;;;;11.07;5.40;;;;;;;16.92;62.94;99935.09;7659170;32;39944;-72
2022/05/14 03:09:57;;;;;;;11.82;6.15;;;;;;;16.72;63.88;99948.19;7658211;32;37967;-72
2022/05/14 03:14:14;;;;;;;12.98;5.90;;;;;;;16.82;63.71;99947.16;7663643;32;36863;-72
2022/05/14 03:18:31;;;;;;;10.48;5.93;;;;;;;16.84;63.03;99945.72;7676580;32;39356;-72
2022/05/14 03:22:47;;;;;;;8.70;5.43;;;;;;;17.14;61.89;99948.09;7673906;32;40727;-72
2022/05/14 03:27:05;;;;;;;8.50;5.85;;;;;;;17.13;61.71;99947.28;7671221;32;37821;-72
2022/05/14 03:31:21;;;;;;;11.35;5.87;;;;;;;17.02;62.34;99957.72;7677398;32;35918;-72
2022/05/14 03:35:37;;;;;;;10.20;5.87;;;;;;;16.93;63.44;99958.78;7678697;32;39147;-73
2022/05/14 03:39:54;;;;;;;8.05;5.07;;;;;;;16.84;64.19;99965.00;7670780;32;39736;-72
2022/05/14 03:44:10;;;;;;;10.00;6.03;;;;;;;17.25;61.67;99963.25;7666844;32;37662;-72
2022/05/14 03:48:26;;;;;;;12.30;6.20;;;;;;;17.02;62.32;99962.41;7667459;32;37094;-72
2022/05/14 03:52:42;;;;;;;9.73;5.85;;;;;;;16.88;63.63;99974.28;7684213;32;39404;-72
2022/05/14 03:56:58;;;;;;;10.45;6.75;;;;;;;17.01;63.53;99977.31;7674103;32;39956;-72
2022/05/14 04:01:15;;;;;;;12.20;5.68;;;;;;;16.91;64.00;99980.31;7657634;32;38111;-72
2022/05/14 04:05:31;;;;;;;10.95;6.15;;;;;;;16.98;63.99;99994.47;7673809;32;38020;-72
2022/05/14 04:09:47;;;;;;;10.50;5.90;;;;;;;17.19;63.57;99998.34;7663383;32;40212;-73
2022/05/14 04:14:03;;;;;;;9.38;6.18;;;;;;;17.11;63.39;100004.62;7661557;32;40950;-73
2022/05/14 04:18:24;;;;;;;8.07;5.53;;;;;;;17.00;63.64;99997.72;7674577;32;37913;-73
2022/05/14 04:22:40;;;;;;;10.70;5.93;;;;;;;17.07;63.53;100000.84;7667754;32;37264;-72
2022/05/14 04:26:56;;;;;;;13.38;6.22;;;;;;;17.41;62.52;100007.78;7659558;32;39467;-73
2022/05/14 04:31:12;;;;;;;11.02;6.20;;;;;;;17.42;62.21;100021.25;7682199;32;40737;-72
2022/05/14 04:35:29;;;;;;;12.68;6.78;;;;;;;17.35;62.67;100020.88;7684798;32;38096;-72
2022/05/14 04:39:45;;;;;;;10.35;5.95;;;;;;;17.19;63.20;100023.16;7685646;32;37281;-72
2022/05/14 04:44:01;;;;;;;11.63;6.20;;;;;;;17.29;62.85;100024.88;7685493;32;39324;-73
2022/05/14 04:48:18;;;;;;;10.13;6.53;;;;;;;17.36;62.62;100027.19;7684170;32;39981;-72
2022/05/14 04:52:34;;;;;;;9.43;6.03;;;;;;;17.32;62.90;100032.53;7685657;32;37938;-73
2022/05/14 04:56:50;;;;;;;10.02;5.90;;;;;;;17.35;62.94;100036.56;7685559;32;37139;-73
2022/05/14 05:01:06;;;;;;;11.73;5.97;;;;;;;17.39;62.85;100032.09;7685260;32;39488;-72
2022/05/14 05:05:22;;;;;;;17.58;6.35;;;;;;;17.62;62.16;100036.47;7663834;32;40757;-72
2022/05/14 05:09:39;;;;;;;11.10;6.05;;;;;;;17.70;62.08;100037.69;7659108;32;38137;-72
2022/05/14 05:13:55;;;;;;;11.55;6.07;;;;;;;17.42;63.32;100040.56;7659430;32;37856;-72
2022/05/14 05:18:12;;;;;;;11.50;6.68;;;;;;;17.45;63.14;100058.38;7681672;32;40072;-72
2022/05/14 05:22:28;;;;;;;10.65;6.32;;;;;;;17.70;62.14;100054.22;7685963;32;40701;-72
2022/05/14 05:26:44;;;;;;;11.10;6.32;;;;;;;17.51;62.47;100056.34;7673524;32;38714;-73
2022/05/14 05:31:01;;;;;;;10.35;5.70;;;;;;;17.80;61.84;100053.16;7662277;32;37863;-72
2022/05/14 05:35:17;;;;;;;12.20;5.40;;;;;;;17.99;61.00;100064.84;7686019;32;40317;-72
2022/05/14 05:39:34;;;;;;;10.05;5.15;;;;;;;17.77;60.77;100059.31;7685869;32;40770;-72
2022/05/14 05:43:50;;;;;;;10.55;5.50;;;;;;;18.06;60.35;100060.78;7684824;32;37881;-73
2022/05/14 05:48:07;;;;;;;8.80;4.62;;;;;;;18.22;59.58;100058.47;7685265;32;37442;-76
2022/05/14 05:52:23;;;;;;;9.05;4.47;;;;;;;18.22;58.48;100061.22;7671664;32;40133;-76
2022/05/14 05:56:51;;;;;;;8.25;4.15;;;;;;;18.76;54.48;100073.81;7666093;32;40326;-76
2022/05/14 06:01:07;;;;;;;7.65;3.70;;;;;;;18.58;53.64;100074.87;7685628;32;38723;-73
2022/05/14 06:05:24;;;;;;;7.72;3.22;;;;;;;18.68;53.26;100076.53;7659231;32;37022;-73
2022/05/14 06:09:40;;;;;;;10.60;2.97;;;;;;;18.36;51.95;100084.03;7659086;32;39117;-74
2022/05/14 06:13:56;;;;;;;5.40;2.62;;;;;;;18.41;47.43;100089.41;7659120;32;40770;-72
2022/05/14 06:18:12;;;;;;;7.07;2.72;;;;;;;18.34;48.15;100089.06;7659019;32;37934;-72
2022/05/14 06:22:28;;;;;;;5.15;2.42;;;;;;;18.26;48.29;100098.91;7658990;32;36978;-70
2022/05/14 06:26:44;;;;;;;6.15;2.83;;;;;;;18.50;48.58;100093.00;7658876;32;40041;-70
2022/05/14 06:31:00;;;;;;;8.27;3.03;;;;;;;18.66;48.26;100098.97;7658872;32;39965;-70
2022/05/14 06:35:17;;;;;;;8.38;2.70;;;;;;;18.95;47.35;100087.38;7658780;32;38003;-70
2022/05/14 06:39:33;;;;;;;11.12;2.67;;;;;;;19.07;47.97;100097.78;7658871;32;37853;-80
2022/05/14 06:43:50;;;;;;;9.90;2.83;;;;;;;19.59;46.69;100099.00;7658829;32;40037;-80
2022/05/14 06:48:06;;;;;;;6.20;3.08;;;;;;;19.69;43.13;100115.28;7658770;32;39807;-79
2022/05/14 06:52:22;;;;;;;10.57;3.17;;;;;;;19.96;43.86;100108.63;7658165;32;37989;-79
2022/05/14 06:56:41;;;;;;;9.18;3.12;;;;;;;19.78;44.26;100101.47;7658592;32;37067;-79
2022/05/14 07:00:58;;;;;;;8.55;2.90;;;;;;;19.95;43.86;100111.72;7657527;32;39108;-80
2022/05/14 07:09:50;;;;;;;8.70;3.25;;;;;;;20.33;44.09;100117.34;7657321;32;37924;-79
2022/05/14 07:14:07;;;;;;;5.18;2.92;;;;;;;20.42;42.66;100126.47;7658476;32;37259;-78
2022/05/14 07:18:23;;;;;;;8.60;3.40;;;;;;;20.26;42.91;100123.41;7658423;32;40152;-81
2022/05/14 07:22:40;;;;;;;7.12;2.70;;;;;;;20.60;43.48;100121.66;7658367;32;39792;-82
2022/05/14 07:26:58;;;;;;;6.28;2.62;;;;;;;21.19;42.97;100122.91;7658154;32;38050;-76
2022/05/14 07:31:14;;;;;;;10.45;3.20;;;;;;;20.68;42.21;100120.06;7658344;32;35973;-80
2022/05/14 07:35:31;;;;;;;7.80;2.97;;;;;;;20.61;43.86;100122.47;7658255;32;40261;-72
2022/05/14 07:39:53;;;;;;;8.90;2.90;;;;;;;20.81;44.16;100115.44;7658004;32;40001;-74
2022/05/14 07:44:11;;;;;;;6.03;2.93;;;;;;;20.58;43.64;100115.66;7656930;32;38712;-71
2022/05/14 07:48:36;;;;;;;5.22;3.15;;;;;;;20.17;44.36;100119.03;7657889;32;36982;-71
2022/05/14 07:52:52;;;;;;;9.90;3.50;;;;;;;20.72;42.36;100106.34;7656577;32;40160;-71
2022/05/14 07:57:08;;;;;;;8.00;2.80;;;;;;;21.36;38.87;100103.38;7657612;32;40793;-70
2022/05/14 08:01:25;;;;;;;9.00;3.53;;;;;;;21.55;38.97;100099.34;7657471;32;38012;-71
2022/05/14 08:05:41;;;;;;;10.93;3.08;;;;;;;21.60;37.27;100098.34;7656297;32;37833;-71
2022/05/14 08:09:58;;;;;;;7.28;2.92;;;;;;;22.19;37.58;100108.41;7657355;32;40444;-71
2022/05/14 08:14:14;;;;;;;4.97;2.62;;;;;;;22.52;37.10;100102.03;7657308;32;40809;-71
2022/05/14 08:18:30;;;;;;;4.05;2.20;;;;;;;22.62;36.43;100096.03;7657216;32;37975;-70
2022/05/14 08:27:21;;;;;;;6.03;2.00;;;;;;;23.10;34.15;100094.44;7657091;32;40080;-71
2022/05/14 08:31:37;;;;;;;5.62;2.40;;;;;;;23.02;30.70;100092.56;7656972;32;40766;-70
2022/05/14 08:35:53;;;;;;;6.22;2.30;;;;;;;23.54;30.29;100085.44;7656760;32;38774;-71
2022/05/14 08:40:17;;;;;;;5.50;1.90;;;;;;;23.65;32.83;100094.91;7650250;32;215661;-72
2022/05/14 08:44:34;;;;;;;6.90;2.35;;;;;;;23.67;29.21;100091.78;7656642;32;39274;-71
2022/05/14 08:48:56;;;;;;;7.22;1.92;;;;;;;23.87;30.50;100078.84;7656494;32;39965;-71
2022/05/14 08:53:13;;;;;;;7.85;2.10;;;;;;;23.40;29.56;100080.25;7656419;32;38044;-71
2022/05/14 08:57:52;;;;;;;7.97;2.08;;;;;;;23.72;29.85;100083.19;7656475;32;36772;-71
2022/05/14 09:02:18;;;;;;;8.75;2.00;;;;;;;23.47;29.81;100083.25;7656384;32;39357;-71
2022/05/14 09:06:34;;;;;;;3.42;1.95;;;;;;;23.35;29.50;100077.72;7656228;32;40666;-71
2022/05/14 09:11:05;;;;;;;10.93;2.12;;;;;;;23.52;29.93;100087.75;7656000;32;37935;-71
2022/05/14 09:15:22;;;;;;;8.13;2.30;;;;;;;23.41;30.21;100084.66;7656688;32;37151;-72
2022/05/14 09:19:40;;;;;;;10.23;4.00;;;;;;;23.43;30.38;100085.91;7659687;32;40229;-71
2022/05/14 09:24:00;;;;;;;7.60;2.47;;;;;;;23.25;31.26;100088.16;7659537;32;39126;-72
2022/05/14 09:28:44;;;;;;;3.12;2.22;;;;;;;23.63;29.60;100084.13;7659556;32;38084;-72
2022/05/14 09:33:00;;;;;;;5.55;2.08;;;;;;;23.72;32.40;100072.06;7659482;32;37671;-72
2022/05/14 09:37:24;;;;;;;11.52;2.35;;;;;;;23.84;31.10;100072.03;7659569;32;39320;-72
2022/05/14 09:41:52;;;;;;;7.78;2.25;;;;;;;24.36;28.97;100073.81;7659413;32;40759;-72
2022/05/14 09:46:12;;;;;;;4.87;2.33;;;;;;;24.38;29.17;100068.69;7659273;32;38700;-71
2022/05/14 09:50:33;;;;;;;4.68;1.83;;;;;;;24.61;30.12;100062.56;7659412;32;37834;-71
2022/05/14 09:54:51;;;;;;;4.47;2.17;;;;;;;24.67;28.83;100071.44;7658623;32;39338;-71
2022/05/14 09:59:39;;;;;;;8.32;2.35;;;;;;;25.10;28.26;100069.66;7659275;32;40151;-71
2022/05/14 10:04:21;;;;;;;7.22;2.10;;;;;;;24.50;29.18;100059.44;7658082;32;38643;-72
2022/05/14 10:09:01;;;;;;;5.10;2.28;;;;;;;24.06;30.27;100061.47;7657845;32;37280;-72
2022/05/14 10:13:52;;;;;;;5.85;2.10;;;;;;;24.49;27.61;100060.63;7655961;32;39884;-71
2022/05/14 10:18:43;;;;;;;6.18;2.00;;;;;;;24.64;27.29;100045.09;7657417;32;39587;-71
2022/05/14 10:28:09;;;;;;;3.15;1.87;;;;;;;24.30;26.29;100043.78;7658318;32;35946;-72
2022/05/14 10:32:31;;;;;;;6.05;2.00;;;;;;;24.77;27.82;100045.81;7658933;32;39113;-73
2022/05/14 10:37:09;;;;;;;8.32;2.20;;;;;;;24.77;26.04;100050.56;7657825;32;40283;-72
2022/05/14 10:41:41;;;;;;;7.03;2.10;;;;;;;24.66;28.39;100050.31;7657696;32;37893;-72
2022/05/14 10:45:58;;;;;;;5.37;2.10;;;;;;;24.50;26.06;100041.91;7657678;32;36834;-72
2022/05/14 10:50:19;;;;;;;5.05;2.20;;;;;;;24.73;27.51;100029.00;7658530;32;39389;-71
2022/05/14 10:54:36;;;;;;;8.88;2.08;;;;;;;25.32;26.94;100034.72;7658742;32;39767;-72
2022/05/14 10:58:56;;;;;;;5.03;1.77;;;;;;;25.32;26.31;100036.69;7657359;32;38719;-72
2022/05/14 11:03:32;;;;;;;5.10;1.70;;;;;;;25.70;27.12;100037.88;7658625;32;37610;-72
2022/05/14 11:07:48;;;;;;;3.78;1.80;;;;;;;26.58;25.85;100029.53;7657486;32;39407;-72
2022/05/14 11:12:09;;;;;;;5.43;1.98;;;;;;;26.34;24.76;100029.91;7658409;32;40299;-72
2022/05/14 11:16:35;;;;;;;3.42;1.65;;;;;;;25.99;24.58;100031.69;7657280;32;38247;-73
2022/05/14 11:21:09;;;;;;;3.50;1.73;;;;;;;26.42;22.77;100034.44;7658415;32;37830;-72
2022/05/14 11:25:26;;;;;;;2.92;1.65;;;;;;;26.34;25.62;100035.50;7657342;32;39908;-72
2022/05/14 11:29:56;;;;;;;5.95;1.90;;;;;;;26.84;24.50;100030.75;7658261;32;39898;-75
2022/05/14 11:34:21;;;;;;;3.80;1.67;;;;;;;26.59;22.97;100019.94;7658155;32;37988;-72
2022/05/14 11:38:43;;;;;;;4.60;1.60;;;;;;;26.71;23.13;100021.75;7658257;32;37739;-72
2022/05/14 11:43:26;;;;;;;4.75;1.85;;;;;;;27.00;22.27;100035.38;7658312;32;39227;-72
2022/05/14 11:47:42;;;;;;;;;;;;;;;26.59;22.29;100028.31;7658183;32;40702;-74
2022/05/14 11:52:20;;;;;;;10.70;2.00;;;;;;;27.06;24.88;100022.66;7658315;32;38269;-75
2022/05/14 11:56:53;;;;;;;5.62;1.98;;;;;;;27.54;22.71;100029.34;7657922;32;37257;-73
2022/05/14 12:01:17;;;;;;;5.47;1.67;;;;;;;26.65;21.92;100022.44;7657857;32;39451;-72
2022/05/14 12:05:38;;;;;;;9.63;1.80;;;;;;;27.57;23.53;100010.16;7657738;32;39913;-73
2022/05/14 12:10:25;;;;;;;5.37;1.80;;;;;;;27.37;23.08;100006.69;7657693;32;36886;-72
2022/05/14 12:14:41;;;;;;;5.65;2.00;;;;;;;27.47;23.63;100008.81;7657672;32;36934;-73
2022/05/14 12:18:59;;;;;;;7.55;1.90;;;;;;;27.83;22.69;100012.84;7657428;32;39364;-73
2022/05/14 12:23:17;;;;;;;2.67;1.70;;;;;;;27.80;21.91;100002.41;7657547;32;39901;-72
2022/05/14 12:27:35;;;;;;;5.12;1.90;;;;;;;28.10;23.92;100007.16;7657174;32;38066;-75
2022/05/14 12:36:51;;;;;;;8.45;1.90;;;;;;;27.13;22.85;100003.16;7657153;32;39914;-74
2022/05/14 12:41:15;;;;;;;5.45;1.80;;;;;;;26.93;22.94;100000.50;7657090;32;40046;-72
2022/05/14 12:45:39;;;;;;;6.20;1.87;;;;;;;26.72;23.53;99994.63;7656758;32;38247;-73
2022/05/14 12:49:56;;;;;;;4.57;2.00;;;;;;;26.78;23.34;99993.09;7657420;32;35506;-73
2022/05/14 12:54:25;;;;;;;5.12;1.80;;;;;;;26.73;24.71;99990.62;7659988;32;39318;-72
2022/05/14 12:58:42;;;;;;;5.85;2.03;;;;;;;27.50;23.47;99972.47;7660173;32;39979;-72
2022/05/14 13:03:08;;;;;;;5.62;1.75;;;;;;;27.42;21.90;99970.78;7659848;32;37868;-73
2022/05/14 13:07:25;;;;;;;3.35;1.42;;;;;;;27.48;22.98;99965.66;7658594;32;37343;-73
2022/05/14 13:11:47;;;;;;;4.30;1.60;;;;;;;26.85;23.70;99972.81;7659944;32;39499;-73
2022/05/14 13:16:31;;;;;;;;;;;;;;;27.15;22.83;99944.84;7660203;32;39760;-73
2022/05/14 13:20:57;;;;;;;4.40;1.42;;;;;;;26.77;23.65;99946.75;7658418;32;38833;-73
2022/05/14 13:25:28;;;;;;;5.97;1.60;;;;;;;26.10;23.83;99958.47;7658744;32;37268;-72
2022/05/14 13:29:44;;;;;;;3.80;1.70;;;;;;;26.17;23.24;99964.97;7659942;32;39302;-72
2022/05/14 13:37:07;;;;;;;4.75;1.77;;;;;;;26.07;23.55;99948.81;7659575;32;39884;-74
2022/05/14 13:38:43;;;;;;;3.05;1.30;;;;;;;25.52;23.77;99946.22;7659699;32;37967;-72
2022/05/14 13:43:10;;;;;;;7.68;1.60;;;;;;;25.67;24.04;99947.31;7658055;32;37122;-73
2022/05/14 13:47:27;;;;;;;3.85;1.42;;;;;;;25.82;24.95;99937.22;7658169;32;39463;-74
2022/05/14 13:51:43;;;;;;;6.55;1.52;;;;;;;25.88;23.99;99937.69;7661124;32;39881;-73
2022/05/14 13:56:05;;;;;;;4.28;1.70;;;;;;;25.64;25.16;99920.91;7677356;32;38660;-73
2022/05/14 14:00:24;;;;;;;8.63;1.70;;;;;;;25.53;26.27;99930.28;7685764;32;37836;-74
2022/05/14 14:04:42;;;;;;;6.35;1.37;;;;;;;25.94;25.48;99919.44;7684758;32;40906;-73
2022/05/14 14:08:58;;;;;;;5.22;1.33;;;;;;;26.02;24.51;99918.41;7684310;32;40675;-73
2022/05/14 14:13:14;;;;;;;10.88;1.73;;;;;;;25.79;24.94;99918.41;7685461;32;38531;-73
2022/05/14 14:17:30;;;;;;;6.03;1.48;;;;;;;25.44;24.19;99917.37;7685427;32;37845;-72
2022/05/14 14:21:46;;;;;;;3.03;1.35;;;;;;;25.49;24.55;99913.44;7685398;32;39976;-72
2022/05/14 14:26:04;;;;;;;8.30;1.58;;;;;;;25.08;24.09;99908.25;7685254;32;40897;-73
2022/05/14 14:30:20;;;;;;;5.65;1.50;;;;;;;25.55;23.97;99911.97;7683736;32;38607;-72
2022/05/14 14:34:37;;;;;;;4.32;1.45;;;;;;;25.79;24.06;99899.66;7684966;32;37276;-72
2022/05/14 14:38:53;;;;;;;3.75;1.25;;;;;;;26.68;23.81;99893.06;7684988;32;39470;-73
2022/05/14 14:43:10;;;;;;;3.35;1.40;;;;;;;27.57;22.49;99882.16;7685198;32;39716;-73
2022/05/14 14:47:26;;;;;;;3.22;1.58;;;;;;;27.60;24.13;99877.78;7684281;32;38543;-74
2022/05/14 14:51:42;;;;;;;3.75;1.30;;;;;;;27.90;22.59;99888.84;7684986;32;37708;-73
2022/05/14 14:55:58;;;;;;;3.08;1.35;;;;;;;27.83;22.36;99886.00;7685060;32;39402;-73
2022/05/14 15:00:17;;;;;;;9.00;2.45;;;;;;;27.36;20.65;99877.16;7685021;32;40857;-73
2022/05/14 15:04:43;;;;;;;2.78;1.50;;;;;;;27.38;22.39;99879.56;7683569;32;38592;-74
2022/05/14 15:09:01;;;;;;;3.67;1.85;;;;;;;27.38;21.38;99877.56;7684866;32;36831;-74
2022/05/14 15:13:20;;;;;;;5.70;1.67;;;;;;;27.83;21.69;99877.59;7684335;32;39294;-74
2022/05/14 15:17:37;;;;;;;6.32;1.73;;;;;;;27.28;21.50;99867.84;7684777;32;40058;-78
2022/05/14 15:21:55;;;;;;;3.58;1.70;;;;;;;27.12;22.11;99867.25;7684456;32;38604;-78
2022/05/14 15:26:12;;;;;;;7.25;2.10;;;;;;;26.78;22.80;99854.06;7683194;32;38076;-80
2022/05/14 15:30:28;;;;;;;5.10;1.55;;;;;;;27.40;22.94;99861.19;7684480;32;39985;-78
2022/05/14 15:34:44;;;;;;;5.03;1.52;;;;;;;27.69;20.98;99856.66;7684397;32;40794;-79
2022/05/14 15:39:00;;;;;;;3.22;1.52;;;;;;;27.17;21.51;99864.13;7683075;32;38597;-79
2022/05/14 15:43:21;;;;;;;3.47;1.58;;;;;;;27.16;21.79;99860.53;7684371;32;37820;-78
2022/05/14 15:47:42;;;;;;;6.22;1.58;;;;;;;27.61;21.50;99851.38;7683170;32;39302;-79
2022/05/14 15:52:00;;;;;;;4.80;1.95;;;;;;;26.97;22.02;99846.69;7684369;32;40772;-79
2022/05/14 15:56:19;;;;;;;4.30;1.55;;;;;;;27.13;22.46;99849.28;7684285;32;37874;-77
2022/05/14 16:00:35;;;;;;;3.75;1.48;;;;;;;26.88;21.97;99852.59;7684030;32;37191;-80
2022/05/14 16:04:51;;;;;;;5.78;1.55;;;;;;;27.23;21.84;99840.19;7683991;32;39790;-79
2022/05/14 16:09:07;;;;;;;4.10;1.62;;;;;;;27.46;20.79;99836.47;7683960;32;41100;-79
2022/05/14 16:17:58;;;;;;;6.65;1.50;;;;;;;26.53;22.63;99848.13;7683778;32;38691;-79
2022/05/14 16:22:14;;;;;;;4.32;1.50;;;;;;;26.74;22.77;99841.25;7682429;32;40037;-79
2022/05/14 16:26:33;;;;;;;7.05;2.72;;;;;;;26.74;21.86;99842.03;7682565;32;40790;-79
2022/05/14 16:30:50;;;;;;;1.73;1.48;;;;;;;26.02;22.72;99852.19;7683301;32;37688;-80
2022/05/14 16:35:07;;;;;;;6.47;1.42;;;;;;;25.70;23.81;99857.22;7683071;32;37064;-74
2022/05/14 16:39:23;;;;;;;5.18;1.70;;;;;;;25.56;24.37;99865.34;7682982;32;40465;-74
2022/05/14 16:43:40;;;;;;;7.12;1.87;;;;;;;25.38;24.64;99874.19;7682836;32;41110;-74
2022/05/14 16:47:56;;;;;;;2.17;1.40;;;;;;;24.93;24.91;99872.91;7682591;32;37697;-75
2022/05/14 16:52:15;;;;;;;11.30;2.10;;;;;;;25.25;24.59;99878.28;7682874;32;37869;-73
2022/05/14 16:56:31;;;;;;;4.32;1.80;;;;;;;25.16;25.08;99883.28;7682993;32;38409;-73
2022/05/14 17:00:48;;;;;;;7.25;1.73;;;;;;;25.09;25.20;99879.22;7682720;32;40236;-74
2022/05/14 17:05:05;;;;;;;7.05;1.80;;;;;;;24.98;25.80;99880.97;7682681;32;38090;-71
2022/05/14 17:09:22;;;;;;;5.93;1.92;;;;;;;24.63;25.85;99883.78;7682639;32;38255;-75
2022/05/14 17:13:38;;;;;;;4.90;1.62;;;;;;;24.94;26.03;99882.88;7682508;32;39838;-74
2022/05/14 17:17:58;;;;;;;5.45;2.00;;;;;;;24.68;26.39;99889.06;7679093;32;40102;-78
2022/05/14 17:22:15;;;;;;;9.60;2.33;;;;;;;24.41;27.50;99893.66;7668805;32;38676;-78
2022/05/14 17:26:31;;;;;;;6.70;1.85;;;;;;;24.46;27.41;99885.00;7676070;32;37268;-78
2022/05/14 17:30:51;;;;;;;8.90;1.75;;;;;;;24.16;28.46;99889.09;7682176;32;39393;-77
2022/05/14 17:35:08;;;;;;;2.05;1.50;;;;;;;24.46;27.27;99888.59;7680550;32;39830;-77
2022/05/14 17:39:40;;;;;;;5.70;1.77;;;;;;;24.00;28.27;99893.87;7684062;32;37691;-77
2022/05/14 17:43:56;;;;;;;5.87;1.80;;;;;;;23.63;29.36;99900.47;7683777;32;36552;-75
2022/05/14 17:48:13;;;;;;;7.53;2.00;;;;;;;23.45;29.44;99901.97;7684699;32;40099;-76
2022/05/14 17:52:29;;;;;;;3.17;1.50;;;;;;;23.38;29.66;99899.78;7684218;32;40615;-76
2022/05/14 17:56:45;;;;;;;5.80;1.95;;;;;;;22.97;30.37;99912.09;7684040;32;37827;-76
2022/05/14 18:01:01;;;;;;;5.30;2.33;;;;;;;23.04;30.46;99909.53;7680280;32;36987;-75
2022/05/14 18:05:18;;;;;;;4.87;2.10;;;;;;;23.12;30.46;99925.28;7659174;32;40479;-76
2022/05/14 18:09:35;;;;;;;3.90;2.00;;;;;;;22.85;30.64;99926.84;7665513;32;38722;-76
2022/05/14 18:13:51;;;;;;;5.20;1.62;;;;;;;22.90;30.73;99929.38;7684138;32;37942;-75
2022/05/14 18:18:10;;;;;;;3.62;1.58;;;;;;;22.66;30.84;99941.34;7682802;32;36998;-77
2022/05/14 18:22:26;;;;;;;9.45;1.60;;;;;;;22.33;32.03;99933.19;7675803;32;38311;-76
2022/05/14 18:26:51;;;;;;;5.90;2.00;;;;;;;22.16;32.54;99945.28;7667785;32;40017;-76
2022/05/14 18:31:10;;;;;;;6.07;2.20;;;;;;;21.94;32.19;99939.84;7658861;32;37866;-76
2022/05/14 18:35:31;;;;;;;5.60;2.25;;;;;;;22.08;32.36;99950.63;7658924;32;37643;-77
2022/05/14 18:39:50;;;;;;;6.20;3.65;;;;;;;21.94;32.75;99950.94;7675095;32;39514;-77
2022/05/14 18:44:14;;;;;;;8.70;2.85;;;;;;;21.76;32.84;99955.87;7674784;32;39963;-76
2022/05/14 18:48:37;;;;;;;6.50;2.30;;;;;;;21.85;33.28;99975.22;7683505;32;37285;-76
2022/05/14 18:52:54;;;;;;;3.55;2.10;;;;;;;21.55;34.14;99985.63;7684799;32;37107;-76
2022/05/14 18:57:12;;;;;;;5.25;2.10;;;;;;;21.52;34.07;99989.09;7685091;32;39969;-75
2022/05/14 19:01:28;;;;;;;6.18;1.90;;;;;;;21.55;34.72;100000.31;7681541;32;40604;-77
2022/05/14 19:10:20;;;;;;;6.05;1.98;;;;;;;21.73;34.02;99998.19;7685001;32;36763;-73
2022/05/14 19:14:38;;;;;;;5.37;2.00;;;;;;;21.85;34.11;100002.97;7684813;32;39490;-72
2022/05/14 19:18:54;;;;;;;9.38;2.15;;;;;;;21.69;34.27;100000.00;7677866;32;39879;-72
2022/05/14 19:23:11;;;;;;;6.45;2.42;;;;;;;21.66;34.37;100005.44;7658413;32;37959;-73
2022/05/14 19:27:27;;;;;;;3.35;1.90;;;;;;;21.61;34.25;100012.03;7658473;32;37628;-72
2022/05/14 19:31:44;;;;;;;6.95;2.03;;;;;;;21.17;35.02;100019.84;7658513;32;39317;-70
2022/05/14 19:36:03;;;;;;;4.35;1.90;;;;;;;21.05;35.26;100017.81;7662995;32;39388;-71
2022/05/14 19:40:27;;;;;;;7.75;2.22;;;;;;;21.11;35.07;100015.66;7684690;32;37968;-71
2022/05/14 19:44:53;;;;;;;5.33;1.90;;;;;;;20.76;35.89;100013.13;7670965;32;37251;-73
2022/05/14 19:49:14;;;;;;;5.43;2.03;;;;;;;20.92;35.65;100014.16;7660302;32;40049;-72
2022/05/14 19:53:37;;;;;;;5.75;2.28;;;;;;;20.67;35.94;100015.12;7684164;32;38626;-72
2022/05/14 19:57:55;;;;;;;3.30;1.98;;;;;;;20.47;36.60;100016.66;7684272;32;38042;-73
2022/05/14 20:02:11;;;;;;;2.70;1.77;;;;;;;20.10;37.65;100030.97;7674015;32;37109;-72
2022/05/14 20:06:27;;;;;;;3.33;2.00;;;;;;;19.93;37.85;100023.50;7670428;32;40107;-73
2022/05/14 20:10:43;;;;;;;5.78;2.15;;;;;;;20.06;37.71;100024.47;7683651;32;40919;-72
2022/05/14 20:14:59;;;;;;;4.75;2.53;;;;;;;20.00;37.91;100023.81;7683430;32;39051;-73
2022/05/14 20:23:51;;;;;;;4.28;2.15;;;;;;;19.39;39.45;100026.66;7682098;32;39346;-72
2022/05/14 20:28:07;;;;;;;5.65;2.53;;;;;;;19.46;39.35;100029.72;7683244;32;40761;-72
2022/05/14 20:32:29;;;;;;;7.40;2.90;;;;;;;19.43;39.57;100030.37;7679321;32;38516;-72
2022/05/14 20:36:45;;;;;;;5.60;2.90;;;;;;;19.11;40.07;100034.44;7683771;32;36000;-72
2022/05/14 20:41:03;;;;;;;6.18;3.20;;;;;;;19.02;40.98;100039.12;7675237;32;39123;-72
2022/05/14 20:45:19;;;;;;;10.40;2.90;;;;;;;19.03;40.50;100043.53;7671777;32;40044;-71
2022/05/14 20:49:35;;;;;;;8.40;2.90;;;;;;;18.72;41.49;100039.66;7657917;32;37962;-73